McKeesport, PA (15133)

6:20 AM EST on February 13, 2016 (GMT -0500)
White Oak, PA 15131-1531 | | Change Station
CLOSE
Current Station
Personal Weather Station
Location: White Oak, PA
Elevation: 1076 ft
Nearby Weather Stations

Elev 1076 ft 40.35 °N, 79.82 °W | Updated 0 second ago

Overcast
Overcast
6.8 °F
Feels Like -6 °F
N
8.1
Wind Variable Wind from WSW
Gusts 9.8 mph

Today
High -- | Low -- °F
--% Chance of Precip.
Yesterday
High -- | Low -- °F
Precip. -- in
Pressure 30.19 in
Visibility 3.0 miles
Clouds Mostly Cloudy 2300 ft
Overcast 3000 ft
Windchill -6 °F
Dew Point -7 °F
Humidity 53%
Rainfall 0.00 in
Snow Depth Not available.
7:15 AM 5:51 PM
Waxing Crescent, 29% visible
SPECI KAGC 131108Z 33017G25KT 3SM -SN BKN023 OVC030 M13/M18 A3019 RMK AO2 P0000 T11331178
Pressure 30.19 in
Visibility 3.0 miles
Clouds Mostly Cloudy 2300 ft
Overcast 3000 ft
Windchill -6 °F
Dew Point -7 °F
Humidity 53%
Rainfall 0.00 in
Snow Depth Not available.
7:15 AM 5:51 PM
Waxing Crescent, 29% visible
SPECI KAGC 131108Z 33017G25KT 3SM -SN BKN023 OVC030 M13/M18 A3019 RMK AO2 P0000 T11331178

10-Day Weather Forecast

Almanac

Astronomy

Feb. 13, 2016 Rise Set
Actual Time
Civil Twilight
Nautical Twilight
Astronomical Twilight
Moon
Length of Visible Light
Length of Day
Tomorrow will be .
, % of the Moon is Illuminated

Today's Extremes

State Highs State Lows

Community

WunderPhotos

Upload Photos

1,892,541 photos uploaded!

WunderBlog® & News

Nearby

Air Quality

  Air Quality AQ Index Pollutant
Not available.

Snow Depth

Station Depth Elevation

Earthquake Activity

City Distance Mag. Time & Date
Minimum magnitude displayed is 2.5.

Coastal Water Temperatures

Place Temperature

Stations

Nearby Weather Stations

Station Location Temp. Windchill Dew Point Humidity Wind Precip. Elev Updated Type
                   

Watches & Warnings

Wind Chill Advisory
Issued: 4:56 AM EST Feb. 13, 2016 – National Weather Service

... Wind Chill Advisory remains in effect until 9 am EST Sunday...

* wind chill... as low as 15 below due to temperatures 4 below to
12 above zero... and winds west 10 to 20 mph with gusts up to
25 mph.

* Impacts... frost bite and hypothermia are possible if
precautions are not taken.